Latest Weather Observations for Moomba Airport

IDS60801

Issued at 1:01 pm CST Tuesday 22 August 2017 (issued every 30 minutes, with the page automatically refreshed every 10 minutes)

About weather observations | Map of weather stations | Latest weather observations for SA | Other Formats
Station Details ID: 017123 Name: MOOMBA AIRPORT Lat: -28.10 Lon: 140.20 Height: 37.8 m
Data from the previous 72 hours. | See also: Recent months at Moomba Airport
Date/Time
CST
Temp
°C
App
Temp
°C
Dew
Point
°C
Rel
Hum
%
Delta-T
°C
Wind Press
QNH
hPa
Press
MSL
hPa
Rain since
9am
mm
Dir  Spd
km/h
Gust
km/h
Spd
kts
Gust
kts
22/01:00pm 20.3 17.0 6.6 41 6.9 SW 13 22 7 12 1020.4 1020.4 0.0
22/12:30pm 20.0 16.2 7.4 44 6.4 S 17 24 9 13 1020.6 1020.6 0.0
22/12:00pm 19.3 15.5 7.4 46 6.0 S 17 26 9 14 1021.1 1021.1 0.0
22/11:30am 19.3 15.9 7.7 47 5.9 S 15 22 8 12 1021.7 1021.7 0.0
22/11:00am 18.1 14.3 7.5 50 5.4 SSE 17 22 9 12 1021.9 1021.9 0.0
22/10:30am 17.1 13.3 7.5 53 4.8 SSE 17 24 9 13 1022.0 1022.0 0.0
22/10:00am 16.3 12.0 8.0 58 4.2 SSE 20 24 11 13 1022.0 1022.0 0.0
22/09:30am 15.1 10.8 7.2 59 3.9 SSE 19 24 10 13 1021.8 1021.8 0.0
22/09:00am 13.9 9.3 6.7 62 3.5 S 20 26 11 14 1021.8 1021.8 0.0
22/08:30am 12.6 7.9 6.2 65 3.0 S 20 28 11 15 1021.5 1021.5 0.0
22/08:00am 11.4 8.0 5.9 69 2.6 S 13 19 7 10 1021.0 1021.0 0.0
22/07:30am 9.3 6.8 4.5 72 2.1 SSW 7 9 4 5 1020.6 1020.6 0.0
22/07:00am 8.4 5.8 4.0 74 1.9 SSW 7 9 4 5 1020.2 1020.2 0.0
22/06:30am 8.4 5.8 4.0 74 1.9 S 7 9 4 5 1019.8 1019.8 0.0
22/06:00am 8.5 5.8 3.8 72 2.0 SSW 7 11 4 6 1019.4 1019.4 0.0
22/05:30am 9.5 6.2 4.5 71 2.2 SSW 11 15 6 8 1019.0 1019.0 0.0
22/05:00am 9.5 6.2 4.3 70 2.3 SSW 11 15 6 8 1018.8 1018.8 0.0
22/04:30am 9.2 5.8 3.8 69 2.3 SW 11 13 6 7 1018.7 1018.7 0.0
22/04:00am 8.8 5.2 3.2 68 2.4 WSW 11 15 6 8 1018.7 1018.7 0.0
22/03:30am 8.8 5.6 3.0 67 2.5 WSW 9 13 5 7 1018.5 1018.5 0.0
22/03:00am 9.5 5.6 3.3 65 2.7 W 13 13 7 7 1018.2 1018.2 0.0
22/02:30am 9.4 5.8 2.9 64 2.8 W 11 11 6 6 1018.2 1018.2 0.0
22/02:00am 11.1 7.3 4.1 62 3.1 W 13 17 7 9 1018.1 1018.1 0.0
22/01:30am 11.1 8.1 4.1 62 3.1 WSW 9 11 5 6 1018.1 1018.1 0.0
22/01:00am 11.7 8.7 4.2 60 3.4 SW 9 13 5 7 1018.1 1018.1 0.0
22/12:30am 11.7 8.7 4.0 59 3.4 SW 9 11 5 6 1018.3 1018.3 0.0
22/12:00am 11.9 9.2 3.9 58 3.6 WSW 7 9 4 5 1018.2 1018.2 0.0
 
Date/Time
CST
Temp
°C
App
Temp
°C
Dew
Point
°C
Rel
Hum
%
Delta-T
°C
Wind Press
QNH
hPa
Press
MSL
hPa
Rain since
9am
mm
Dir  Spd
km/h
Gust
km/h
Spd
kts
Gust
kts
21/11:30pm 13.2 9.9 4.4 55 4.0 SW 11 15 6 8 1018.2 1018.2 0.0
21/11:00pm 13.8 10.1 4.7 54 4.2 SSW 13 17 7 9 1018.2 1018.2 0.0
21/10:30pm 14.0 10.7 4.6 53 4.3 SW 11 13 6 7 1018.2 1018.2 0.0
21/10:00pm 14.5 11.2 4.5 51 4.6 SW 11 15 6 8 1017.9 1017.9 0.0
21/09:30pm 15.4 11.7 4.5 48 5.1 SW 13 17 7 9 1017.8 1017.8 0.0
21/09:00pm 15.8 12.2 4.8 48 5.2 SW 13 17 7 9 1017.4 1017.4 0.0
21/08:30pm 16.3 12.6 4.7 46 5.5 SW 13 15 7 8 1017.3 1017.3 0.0
21/08:00pm 17.0 13.0 4.7 44 5.8 WSW 15 17 8 9 1016.8 1016.8 0.0
21/07:30pm 17.7 13.6 4.6 42 6.2 WSW 15 19 8 10 1016.3 1016.3 0.0
21/07:00pm 18.4 13.9 4.2 39 6.7 WSW 17 19 9 10 1015.7 1015.7 0.0
21/06:30pm 19.4 14.6 4.4 37 7.2 WSW 19 24 10 13 1015.1 1015.1 0.0
21/06:00pm 20.1 14.3 4.2 35 7.6 WSW 24 33 13 18 1014.7 1014.7 0.0
21/05:30pm 21.0 14.1 4.6 34 8.0 WSW 30 41 16 22 1014.3 1014.3 0.0
21/05:00pm 21.5 14.3 5.0 34 8.1 WSW 32 44 17 24 1013.8 1013.8 0.0
21/04:30pm 22.1 15.2 4.7 32 8.6 WSW 30 39 16 21 1013.5 1013.5 0.0
21/04:00pm 22.4 15.4 4.0 30 9.0 WSW 30 43 16 23 1013.2 1013.2 0.0
21/03:30pm 22.7 16.0 3.8 29 9.2 WSW 28 37 15 20 1012.9 1012.9 0.0
21/03:00pm 22.8 16.1 3.9 29 9.2 WSW 28 43 15 23 1012.7 1012.7 0.0
21/02:30pm 23.4 16.4 3.9 28 9.6 W 30 44 16 24 1012.8 1012.8 0.0
21/02:00pm 23.3 16.2 3.8 28 9.5 WSW 30 43 16 23 1012.8 1012.8 0.0
21/01:30pm 22.2 15.3 2.8 28 9.2 WSW 28 39 15 21 1012.9 1012.9 0.0
21/01:00pm 22.3 15.6 3.4 29 9.1 WSW 28 37 15 20 1013.2 1013.2 0.0
21/12:30pm 22.1 15.1 2.2 27 9.3 WSW 28 41 15 22 1013.4 1013.4 0.0
21/12:00pm 21.8 14.2 0.4 24 9.7 WSW 30 41 16 22 1013.5 1013.5 0.0
21/11:30am 22.2 14.3 -1.8 20 10.4 WSW 30 41 16 22 1013.7 1013.7 0.0
21/11:00am 21.7 14.7 -3.6 18 10.6 W 24 39 13 21 1014.0 1014.0 0.0
21/10:30am 21.0 14.4 -6.6 15 10.8 WNW 20 30 11 16 1014.1 1014.1 0.0
21/10:00am 19.9 12.1 -7.5 15 10.4 NW 26 33 14 18 1014.4 1014.4 0.0
21/09:30am 19.0 10.8 -7.4 16 9.9 NW 28 35 15 19 1014.2 1014.2 0.0
21/09:00am 18.5 9.9 -7.8 16 9.8 NNW 30 39 16 21 1014.1 1014.1 0.0
21/08:30am 17.3 9.5 -7.9 17 9.2 N 26 33 14 18 1013.9 1013.9 0.0
21/08:00am 15.5 9.1 -7.3 20 8.3 N 19 22 10 12 1013.5 1013.5 0.0
21/07:30am 13.9 7.8 -7.4 22 7.6 N 17 19 9 10 1013.2 1013.2 0.0
21/07:00am 12.5 6.0 -7.5 24 7.0 N 19 22 10 12 1012.9 1012.9 0.0
21/06:30am 12.3 5.3 -7.7 24 6.9 NNE 22 26 12 14 1012.3 1012.3 0.0
21/06:00am 11.9 5.2 -7.5 25 6.7 NNE 20 22 11 12 1012.1 1012.1 0.0
21/05:30am 11.5 5.1 -6.8 27 6.4 NNE 19 20 10 11 1012.0 1012.0 0.0
21/05:00am 11.3 5.7 -6.1 29 6.2 NNE 15 19 8 10 1011.9 1011.9 0.0
21/04:30am 10.9 5.8 -5.5 31 5.9 NE 13 15 7 8 1011.9 1011.9 0.0
21/04:00am 11.3 6.2 -5.6 30 6.1 ENE 13 15 7 8 1012.0 1012.0 0.0
21/03:30am 12.0 6.9 -5.0 30 6.2 ENE 13 15 7 8 1012.3 1012.3 0.0
21/03:00am 12.8 8.1 -5.2 28 6.6 NE 11 11 6 6 1012.5 1012.5 0.0
21/02:30am 14.3 9.3 -4.4 27 7.1 NE 13 15 7 8 1012.6 1012.6 0.0
21/02:00am 14.8 9.8 -4.5 26 7.4 NE 13 17 7 9 1012.8 1012.8 0.0
21/01:30am 15.0 9.6 -4.8 25 7.5 NE 15 19 8 10 1013.1 1013.1 0.0
21/01:00am 15.1 8.9 -4.8 25 7.6 NE 19 22 10 12 1013.0 1013.0 0.0
21/12:30am 15.6 9.2 -5.4 23 7.9 NE 20 26 11 14 1013.4 1013.4 0.0
21/12:00am 15.4 7.6 -4.0 26 7.6 NE 28 37 15 20 1012.6 1012.6 0.0
 
Date/Time
CST
Temp
°C
App
Temp
°C
Dew
Point
°C
Rel
Hum
%
Delta-T
°C
Wind Press
QNH
hPa
Press
MSL
hPa
Rain since
9am
mm
Dir  Spd
km/h
Gust
km/h
Spd
kts
Gust
kts
20/11:30pm 14.9 8.7 -3.4 28 7.2 ENE 20 26 11 14 1014.4 1014.4 0.0
20/11:00pm 15.0 9.2 -4.3 26 7.4 ENE 17 20 9 11 1015.5 1015.5 0.0
20/10:30pm 15.2 10.2 -4.2 26 7.5 ESE 13 17 7 9 1016.4 1016.4 0.0
20/10:00pm 15.6 10.2 -4.3 25 7.7 SSE 15 24 8 13 1016.8 1016.8 0.0
20/09:44pm 16.4 11.4 -7.9 18 8.8 E 11 19 6 10 1016.5 1016.5 0.0
20/09:30pm 16.0 8.6 -7.6 19 8.5 NE 24 30 13 16 1014.3 1014.3 0.0
20/09:00pm 15.6 8.6 -7.2 20 8.3 ENE 22 30 12 16 1014.7 1014.7 0.0
20/08:30pm 15.4 8.8 -6.8 21 8.1 ENE 20 28 11 15 1015.4 1015.4 0.0
20/08:00pm 15.4 9.8 -6.8 21 8.1 E 15 19 8 10 1016.5 1016.5 0.0
20/07:30pm 15.4 10.5 -6.8 21 8.1 E 11 15 6 8 1016.9 1016.9 0.0
20/07:00pm 15.5 10.5 -8.0 19 8.4 E 11 13 6 7 1016.6 1016.6 0.0
20/06:30pm 16.1 11.2 -7.5 19 8.6 E 11 13 6 7 1016.6 1016.6 0.0
20/06:00pm 17.0 11.7 -7.5 18 9.0 E 13 17 7 9 1016.6 1016.6 0.0
20/05:30pm 17.8 12.9 -7.5 17 9.4 E 11 15 6 8 1016.8 1016.8 0.0
20/05:00pm 18.6 12.9 -7.7 16 9.8 ENE 15 20 8 11 1017.1 1017.1 0.0
20/04:30pm 18.8 12.3 -7.5 16 9.8 ENE 19 22 10 12 1017.0 1017.0 0.0
20/04:00pm 18.8 12.8 -6.7 17 9.7 NE 17 24 9 13 1017.2 1017.2 0.0
20/03:30pm 18.7 11.8 -6.1 18 9.5 ENE 22 26 12 14 1017.5 1017.5 0.0
20/03:00pm 18.5 12.0 -6.2 18 9.5 ENE 20 26 11 14 1017.9 1017.9 0.0
20/02:30pm 18.6 11.7 -6.2 18 9.5 NE 22 28 12 15 1018.2 1018.2 0.0
20/02:00pm 18.8 12.6 -5.3 19 9.5 NE 19 30 10 16 1018.9 1018.9 0.0
20/01:30pm 17.9 11.0 -6.0 19 9.1 NE 22 32 12 17 1019.6 1019.6 0.0
20/01:00pm 17.2 10.4 -5.3 21 8.7 NE 22 28 12 15 1020.4 1020.4 0.0
20/12:30pm 16.8 9.6 -5.6 21 8.5 NE 24 33 13 18 1021.1 1021.1 0.0
20/12:00pm 16.4 8.4 -5.3 22 8.3 NE 28 35 15 19 1021.9 1021.9 0.0
20/11:30am 16.2 7.9 -4.9 23 8.1 ENE 30 37 16 20 1022.7 1022.7 0.0
20/11:00am 15.8 7.1 -4.7 24 7.9 ENE 32 39 17 21 1023.3 1023.3 0.0
20/10:30am 15.7 7.1 -4.2 25 7.7 ENE 32 39 17 21 1023.6 1023.6 0.0
20/10:00am 14.8 6.2 -4.5 26 7.4 ENE 32 43 17 23 1023.8 1023.8 0.0
20/09:30am 13.9 5.3 -4.3 28 6.9 ENE 32 43 17 23 1024.3 1024.2 0.0
20/09:00am 12.8 4.6 -4.3 30 6.4 ENE 30 37 16 20 1024.7 1024.6 0.0
20/08:30am 11.4 3.6 -3.9 34 5.7 ENE 28 35 15 19 1025.0 1024.9 0.0
20/08:00am 10.3 4.1 -3.4 38 5.1 E 20 26 11 14 1025.2 1025.1 0.0
20/07:30am 8.3 3.4 -3.2 44 4.2 E 13 15 7 8 1025.3 1025.2 0.0
20/07:00am 7.2 2.3 -3.6 46 3.9 E 13 17 7 9 1025.0 1024.9 0.0
20/06:30am 6.7 2.1 -3.8 47 3.7 E 11 15 6 8 1024.9 1024.8 0.0
20/06:00am 6.8 1.5 -3.7 47 3.7 ESE 15 17 8 9 1024.4 1024.3 0.0
20/05:30am 6.2 0.8 -4.3 47 3.6 ESE 15 17 8 9 1024.0 1024.0 0.0
20/05:00am 5.9 0.9 -4.3 48 3.5 ESE 13 15 7 8 1024.0 1024.0 0.0
20/04:30am 5.5 0.9 -4.3 49 3.3 E 11 13 6 7 1023.6 1023.6 0.0
20/04:00am 5.7 1.1 -3.9 50 3.3 ESE 11 13 6 7 1023.5 1023.5 0.0
20/03:30am 5.4 0.8 -4.2 50 3.3 ESE 11 13 6 7 1023.7 1023.7 0.0
20/03:00am 6.5 1.6 -3.4 49 3.5 ESE 13 15 7 8 1023.8 1023.8 0.0
20/02:30am 5.9 1.3 -4.0 49 3.4 ESE 11 13 6 7 1024.1 1024.1 0.0
20/02:00am 6.1 1.9 -4.1 48 3.5 ESE 9 9 5 5 1024.3 1024.2 0.0
20/01:30am 6.9 2.7 -3.9 46 3.8 ESE 9 11 5 6 1024.5 1024.4 0.0
20/01:00am 7.9 3.8 -3.3 45 4.1 ESE 9 13 5 7 1024.8 1024.7 0.0
20/12:30am 9.9 5.1 -2.7 41 4.7 SE 13 19 7 10 1024.9 1024.8 0.0
20/12:00am 10.8 5.7 -2.2 40 5.0 SE 15 19 8 10 1024.9 1024.8 0.0
 
Date/Time
CST
Temp
°C
App
Temp
°C
Dew
Point
°C
Rel
Hum
%
Delta-T
°C
Wind Press
QNH
hPa
Press
MSL
hPa
Rain since
9am
mm
Dir  Spd
km/h
Gust
km/h
Spd
kts
Gust
kts
19/11:30pm 11.7 5.8 -2.5 37 5.5 SE 19 24 10 13 1025.1 1025.0 0.0
19/11:00pm 12.4 6.3 -2.2 36 5.7 SE 20 28 11 15 1025.3 1025.2 0.0
19/10:30pm 13.2 7.3 -1.9 35 6.0 SE 19 30 10 16 1025.5 1025.4 0.0
19/10:00pm 13.7 7.7 -1.9 34 6.2 SE 20 28 11 15 1025.6 1025.5 0.0
19/09:30pm 13.8 8.3 -1.8 34 6.2 SE 17 24 9 13 1025.6 1025.5 0.0
19/09:00pm 13.9 8.8 -1.7 34 6.2 SE 15 20 8 11 1025.6 1025.5 0.0
19/08:30pm 14.9 9.5 -1.2 33 6.6 SE 17 24 9 13 1025.5 1025.4 0.0
19/08:00pm 15.7 10.4 -0.9 32 6.9 SSE 17 24 9 13 1025.5 1025.4 0.0
19/07:30pm 16.1 10.7 -1.5 30 7.2 SE 17 22 9 12 1025.3 1025.2 0.0
19/07:00pm 16.5 11.1 -1.6 29 7.5 SE 17 24 9 13 1025.1 1025.0 0.0
19/06:30pm 16.6 11.5 -2.0 28 7.6 SSE 15 22 8 12 1024.9 1024.8 0.0
19/06:00pm 17.3 11.4 -1.9 27 7.9 SSE 19 24 10 13 1024.7 1024.6 0.0
19/05:30pm 18.1 12.2 -2.2 25 8.4 SSE 19 26 10 14 1024.7 1024.6 0.0
19/05:00pm 18.5 12.6 -2.4 24 8.7 SSE 19 28 10 15 1024.9 1024.8 0.0
19/04:30pm 18.8 12.7 -2.2 24 8.7 S 20 28 11 15 1024.8 1024.7 0.0
19/04:00pm 19.1 13.1 -3.1 22 9.1 SSE 19 28 10 15 1024.7 1024.6 0.0
19/03:30pm 19.1 13.0 -2.5 23 9.0 S 20 30 11 16 1024.8 1024.7 0.0
19/03:00pm 19.3 13.4 -2.3 23 9.0 SSE 19 28 10 15 1025.1 1025.0 0.0
19/02:30pm 19.0 13.1 -2.6 23 8.9 SSE 19 28 10 15 1025.2 1025.1 0.0
19/02:00pm 18.8 12.7 -2.2 24 8.8 SSE 20 32 11 17 1025.6 1025.5 0.0
19/01:30pm 18.7 12.8 -2.3 24 8.7 SSE 19 28 10 15 1026.0 1025.9 0.0

Other Formats:

Comma delimited format used in spreadsheet applications
http://www.bom.gov.au/fwo/IDS60801/IDS60801.95481.axf

JavaScript Object Notation format (JSON) in row-major order
http://www.bom.gov.au/fwo/IDS60801/IDS60801.95481.json